Time;durP1;ratioP1;P1;durP2;ratioP2;P2;SDS_P1;SDS_P2;PMS_P1;PMS_P2;Temp;Humidity;BMP_temperature;BMP_pressure;BME280_temperature;BME280_humidity;BME280_pressure;Samples;Min_cycle;Max_cycle;Signal;HPM_P1;HPM_P2
2023/06/18 00:02:28;;;;;;;;;;;;;;;21.62;39.23;101129.88;5121223;29;19923;-76
2023/06/18 00:05:00;;;;;;;;;;;;;;;21.55;39.41;101130.28;5120660;29;20291;-75
2023/06/18 00:07:31;;;;;;;;;;;;;;;21.48;39.49;101125.31;5120899;29;19920;-75
2023/06/18 00:10:04;;;;;;;;;;;;;;;21.42;39.12;101125.59;5120950;29;19966;-75
2023/06/18 00:12:35;;;;;;;;;;;;;;;21.36;39.75;101125.06;5121179;29;19926;-76
2023/06/18 00:15:07;;;;;;;;;;;;;;;21.31;39.92;101120.84;5122361;29;19915;-77
2023/06/18 00:17:38;;;;;;;;;;;;;;;21.27;39.88;101121.13;5124477;29;19937;-76
2023/06/18 00:20:10;;;;;;;;;;;;;;;21.19;40.11;101124.16;5124614;29;19923;-75
2023/06/18 00:22:41;;;;;;;;;;;;;;;21.16;40.42;101116.38;5124291;29;20006;-75
2023/06/18 00:25:13;;;;;;;;;;;;;;;21.11;40.60;101119.25;5123071;29;20487;-75
2023/06/18 00:27:44;;;;;;;;;;;;;;;21.07;40.61;101122.13;5124608;29;19919;-75
2023/06/18 00:30:15;;;;;;;;;;;;;;;21.00;40.93;101116.28;5124194;29;19923;-75
2023/06/18 00:32:48;;;;;;;;;;;;;;;20.96;40.60;101114.72;5124182;29;19919;-76
2023/06/18 00:35:20;;;;;;;;;;;;;;;20.90;41.21;101115.91;5124068;29;19923;-75
2023/06/18 00:37:52;;;;;;;;;;;;;;;20.85;40.85;101115.28;5123088;29;19970;-75
2023/06/18 00:40:23;;;;;;;;;;;;;;;20.80;41.70;101108.50;5123940;29;19919;-75
2023/06/18 00:42:55;;;;;;;;;;;;;;;20.75;41.33;101108.72;5123981;29;19919;-75
2023/06/18 00:45:29;;;;;;;;;;;;;;;20.68;41.69;101096.72;5124310;29;19947;-75
2023/06/18 00:48:00;;;;;;;;;;;;;;;20.58;41.76;101098.97;5124007;29;19974;-75
2023/06/18 00:50:32;;;;;;;;;;;;;;;20.52;41.73;101092.16;5123914;29;19915;-76
2023/06/18 00:53:04;;;;;;;;;;;;;;;20.49;41.82;101096.75;5123982;29;19915;-75
2023/06/18 00:55:37;;;;;;;;;;;;;;;20.42;41.70;101090.06;5123972;29;19919;-76
2023/06/18 00:58:08;;;;;;;;;;;;;;;20.36;42.63;101089.41;5122504;29;19974;-76
2023/06/18 01:00:40;;;;;;;;;;;;;;;20.32;42.67;101090.50;5123228;29;19963;-76
2023/06/18 01:03:15;;;;;;;;;;;;;;;20.27;43.38;101091.66;5123870;29;19963;-75
2023/06/18 01:05:49;;;;;;;;;;;;;;;20.19;43.77;101089.41;5124332;29;19977;-75
2023/06/18 01:08:23;;;;;;;;;;;;;;;20.11;43.31;101083.59;5123722;29;20014;-75
2023/06/18 01:11:02;;;;;;;;;;;;;;;20.02;42.97;101088.38;5123483;29;20006;-75
2023/06/18 01:13:36;;;;;;;;;;;;;;;19.97;42.75;101085.13;5124199;29;19950;-76
2023/06/18 01:16:08;;;;;;;;;;;;;;;19.90;42.88;101089.00;5123931;29;20275;-75
2023/06/18 01:18:45;;;;;;;;;;;;;;;19.85;43.52;101080.38;5123193;29;19923;-76
2023/06/18 01:21:19;;;;;;;;;;;;;;;19.79;43.44;101084.19;5122925;29;19922;-75
2023/06/18 01:24:00;;;;;;;;;;;;;;;19.72;44.32;101079.22;5123079;29;19915;-75
2023/06/18 01:26:32;;;;;;;;;;;;;;;19.66;43.76;101073.28;5122129;29;20355;-76
2023/06/18 01:29:03;;;;;;;;;;;;;;;19.60;46.08;101075.38;5123740;29;19919;-75
2023/06/18 01:31:36;;;;;;;;;;;;;;;19.56;43.86;101079.06;5122836;29;20364;-76
2023/06/18 01:34:07;;;;;;;;;;;;;;;19.53;43.96;101074.78;5122865;29;19967;-75
2023/06/18 01:36:57;;;;;;;;;;;;;;;19.49;45.35;101081.97;5123054;29;19922;-75
2023/06/18 01:39:37;;;;;;;;;;;;;;;19.44;44.76;101069.91;5123466;29;19921;-75
2023/06/18 01:42:16;;;;;;;;;;;;;;;19.39;44.95;101074.56;5123301;29;19974;-74
2023/06/18 01:44:53;;;;;;;;;;;;;;;19.35;44.49;101065.88;5123406;29;19923;-75
2023/06/18 01:47:26;;;;;;;;;;;;;;;19.25;44.62;101060.16;5122760;29;19915;-75
2023/06/18 01:49:59;;;;;;;;;;;;;;;19.17;45.65;101064.09;5123291;29;20014;-75
2023/06/18 01:52:33;;;;;;;;;;;;;;;19.09;46.02;101062.66;5122780;29;20277;-76
2023/06/18 01:55:05;;;;;;;;;;;;;;;19.02;46.64;101069.13;5122336;29;20335;-75
2023/06/18 01:57:36;;;;;;;;;;;;;;;18.96;45.94;101066.72;5123345;29;19919;-75
2023/06/18 02:00:08;;;;;;;;;;;;;;;18.91;46.13;101072.22;5123269;29;20022;-75
2023/06/18 02:02:40;;;;;;;;;;;;;;;18.86;46.37;101068.91;5122876;29;20413;-75
2023/06/18 02:05:11;;;;;;;;;;;;;;;18.83;46.37;101069.00;5122389;29;19923;-75
2023/06/18 02:07:43;;;;;;;;;;;;;;;18.77;46.56;101062.22;5122308;29;19941;-75
2023/06/18 02:10:14;;;;;;;;;;;;;;;18.72;46.61;101061.56;5122026;29;19915;-75
2023/06/18 02:12:45;;;;;;;;;;;;;;;18.61;46.88;101050.56;5122812;29;19923;-75
2023/06/18 02:15:17;;;;;;;;;;;;;;;18.55;46.62;101050.84;5122730;29;19996;-75
2023/06/18 02:17:48;;;;;;;;;;;;;;;18.49;47.05;101053.75;5122439;29;19946;-74
2023/06/18 02:20:19;;;;;;;;;;;;;;;18.41;47.94;101049.63;5123140;29;19923;-75
2023/06/18 02:22:52;;;;;;;;;;;;;;;18.34;47.76;101053.47;5122361;29;20402;-75
2023/06/18 02:25:28;;;;;;;;;;;;;;;18.27;47.86;101046.69;5121955;29;19919;-75
2023/06/18 02:28:00;;;;;;;;;;;;;;;18.23;47.89;101053.03;5121705;29;19919;-75
2023/06/18 02:30:32;;;;;;;;;;;;;;;18.17;48.34;101054.13;5122067;29;19921;-75
2023/06/18 02:33:06;;;;;;;;;;;;;;;18.13;48.14;101047.28;5122470;29;19919;-76
2023/06/18 02:35:37;;;;;;;;;;;;;;;18.11;48.57;101043.84;5122383;29;20335;-75
2023/06/18 02:38:08;;;;;;;;;;;;;;;18.06;49.30;101040.50;5121858;29;19959;-76
2023/06/18 02:40:40;;;;;;;;;;;;;;;17.98;49.54;101038.19;5121713;29;20282;-75
2023/06/18 02:43:11;;;;;;;;;;;;;;;17.88;49.72;101026.28;5120538;29;19973;-75
2023/06/18 02:45:42;;;;;;;;;;;;;;;17.81;49.35;101036.19;5121740;29;20392;-75
2023/06/18 02:48:13;;;;;;;;;;;;;;;17.76;49.78;101035.50;5121712;29;20422;-75
2023/06/18 02:50:45;;;;;;;;;;;;;;;17.73;49.88;101040.91;5121816;29;19915;-75
2023/06/18 02:53:16;;;;;;;;;;;;;;;17.68;50.09;101042.84;5121963;29;20014;-75
2023/06/18 02:55:47;;;;;;;;;;;;;;;17.63;50.99;101043.03;5121636;29;19966;-77
2023/06/18 02:58:27;;;;;;;;;;;;;;;17.58;50.67;101039.72;5121908;29;19927;-75
2023/06/18 03:01:00;;;;;;;;;;;;;;;17.50;50.60;101026.81;5121482;29;19927;-76
2023/06/18 03:03:31;;;;;;;;;;;;;;;17.45;50.99;101030.53;5121474;29;19918;-76
2023/06/18 03:06:02;;;;;;;;;;;;;;;17.41;51.26;101032.44;5121866;29;19930;-75
2023/06/18 03:08:33;;;;;;;;;;;;;;;17.38;51.30;101036.97;5121461;29;19919;-76
2023/06/18 03:11:05;;;;;;;;;;;;;;;17.34;52.21;101045.88;5121183;29;19919;-76
2023/06/18 03:13:36;;;;;;;;;;;;;;;17.33;51.64;101052.09;5122253;29;19923;-76
2023/06/18 03:16:07;;;;;;;;;;;;;;;17.32;51.57;101048.56;5121076;29;19954;-75
2023/06/18 03:18:39;;;;;;;;;;;;;;;17.28;52.46;101046.97;5120166;29;19927;-76
2023/06/18 03:21:10;;;;;;;;;;;;;;;17.24;52.09;101048.88;5121126;29;20454;-76
2023/06/18 03:23:43;;;;;;;;;;;;;;;17.23;52.59;101046.28;5121059;29;19923;-76
2023/06/18 03:26:15;;;;;;;;;;;;;;;17.20;52.61;101051.69;5121136;29;20282;-76
2023/06/18 03:28:47;;;;;;;;;;;;;;;17.18;52.71;101051.72;5120880;29;19915;-75
2023/06/18 03:31:18;;;;;;;;;;;;;;;17.18;52.81;101053.47;5121027;29;19919;-77
2023/06/18 03:33:50;;;;;;;;;;;;;;;17.14;52.42;101045.69;5121211;29;20474;-75
2023/06/18 03:36:21;;;;;;;;;;;;;;;17.13;53.16;101043.13;5120965;29;20347;-75
2023/06/18 03:38:52;;;;;;;;;;;;;;;17.12;52.78;101047.53;5121389;29;19922;-76
2023/06/18 03:41:24;;;;;;;;;;;;;;;17.11;53.34;101045.81;5120956;29;19926;-76
2023/06/18 03:43:55;;;;;;;;;;;;;;;17.11;53.30;101044.94;5120898;29;19926;-75
2023/06/18 03:46:27;;;;;;;;;;;;;;;17.10;53.75;101048.50;5121376;29;19972;-76
2023/06/18 03:48:58;;;;;;;;;;;;;;;17.08;53.46;101045.94;5121729;29;19919;-75
2023/06/18 03:51:30;;;;;;;;;;;;;;;17.10;53.59;101049.34;5125039;29;19961;-75
2023/06/18 03:54:01;;;;;;;;;;;;;;;17.12;53.61;101049.31;5124375;29;19970;-75
2023/06/18 03:56:33;;;;;;;;;;;;;;;17.12;53.82;101049.31;5124988;29;19916;-76
2023/06/18 03:59:04;;;;;;;;;;;;;;;17.13;54.21;101057.16;5124597;29;19915;-76
2023/06/18 04:01:35;;;;;;;;;;;;;;;17.16;53.98;101063.22;5124533;29;20359;-75
2023/06/18 04:04:08;;;;;;;;;;;;;;;17.16;54.82;101069.34;5124807;29;19926;-76
2023/06/18 04:06:39;;;;;;;;;;;;;;;17.19;54.52;101065.75;5124348;29;19919;-75
2023/06/18 04:09:11;;;;;;;;;;;;;;;17.21;54.19;101071.81;5125307;29;20279;-76
2023/06/18 04:11:42;;;;;;;;;;;;;;;17.23;54.22;101070.84;5124564;29;19923;-76
2023/06/18 04:14:14;;;;;;;;;;;;;;;17.28;54.65;101068.06;5123965;29;19942;-75
2023/06/18 04:16:46;;;;;;;;;;;;;;;17.31;54.59;101065.31;5124127;29;19930;-76
2023/06/18 04:19:17;;;;;;;;;;;;;;;17.34;54.81;101069.59;5124110;29;19979;-75
2023/06/18 04:21:48;;;;;;;;;;;;;;;17.34;54.75;101062.56;5123823;29;20022;-76
2023/06/18 04:24:20;;;;;;;;;;;;;;;17.38;54.95;101058.03;5124316;29;20295;-76
2023/06/18 04:26:51;;;;;;;;;;;;;;;17.39;55.26;101065.88;5123998;29;19923;-75
2023/06/18 04:29:22;;;;;;;;;;;;;;;17.41;55.78;101068.47;5124423;29;20359;-76
2023/06/18 04:31:53;;;;;;;;;;;;;;;17.42;54.89;101057.88;5124510;29;19919;-76
2023/06/18 04:34:25;;;;;;;;;;;;;;;17.44;54.87;101060.44;5124003;29;19919;-76
2023/06/18 04:36:56;;;;;;;;;;;;;;;17.46;54.82;101051.56;5125072;29;19926;-76
2023/06/18 04:39:27;;;;;;;;;;;;;;;17.48;55.43;101055.00;5124344;29;19925;-76
2023/06/18 04:41:59;;;;;;;;;;;;;;;17.51;55.11;101054.03;5123761;29;19930;-76
2023/06/18 04:44:30;;;;;;;;;;;;;;;17.54;55.15;101053.91;5122745;29;19962;-76
2023/06/18 04:47:03;;;;;;;;;;;;;;;17.55;55.38;101050.38;5122814;29;19970;-76
2023/06/18 04:49:35;;;;;;;;;;;;;;;17.56;56.06;101059.13;5123882;29;20283;-77
2023/06/18 04:52:07;;;;;;;;;;;;;;;17.56;56.62;101052.06;5123867;29;19988;-76
2023/06/18 04:54:39;;;;;;;;;;;;;;;17.60;55.73;101052.84;5123883;29;19958;-76
2023/06/18 04:57:10;;;;;;;;;;;;;;;17.65;56.61;101056.16;5123246;29;19920;-76
2023/06/18 04:59:42;;;;;;;;;;;;;;;17.71;56.59;101055.03;5123472;29;19915;-76
2023/06/18 05:02:14;;;;;;;;;;;;;;;17.77;56.56;101060.94;5123820;29;20375;-76
2023/06/18 05:04:45;;;;;;;;;;;;;;;17.85;56.63;101064.16;5123575;29;19919;-77
2023/06/18 05:07:17;;;;;;;;;;;;;;;17.94;55.47;101065.59;5123997;29;19919;-76
2023/06/18 05:09:49;;;;;;;;;;;;;;;18.06;56.34;101066.03;5123212;29;19915;-76
2023/06/18 05:12:20;;;;;;;;;;;;;;;18.17;56.00;101061.19;5123026;29;19948;-76
2023/06/18 05:14:51;;;;;;;;;;;;;;;18.30;55.44;101074.75;5121852;29;20430;-76
2023/06/18 05:17:22;;;;;;;;;;;;;;;18.45;55.73;101067.97;5123658;29;19947;-76
2023/06/18 05:19:54;;;;;;;;;;;;;;;18.63;56.44;101069.88;5123631;29;19919;-75
2023/06/18 05:22:25;;;;;;;;;;;;;;;18.80;55.26;101071.78;5121901;29;20260;-76
2023/06/18 05:24:59;;;;;;;;;;;;;;;19.00;56.14;101073.63;5123051;29;20371;-75
2023/06/18 05:27:30;;;;;;;;;;;;;;;19.18;56.60;101066.66;5122967;29;19919;-75
2023/06/18 05:30:05;;;;;;;;;;;;;;;19.35;55.57;101072.97;5122854;29;19919;-75
2023/06/18 05:32:36;;;;;;;;;;;;;;;19.56;54.76;101076.41;5122769;29;19919;-75
2023/06/18 05:35:08;;;;;;;;;;;;;;;19.77;54.23;101074.59;5122893;29;19919;-76
2023/06/18 05:37:39;;;;;;;;;;;;;;;19.94;53.90;101076.47;5122894;29;19925;-75
2023/06/18 05:40:11;;;;;;;;;;;;;;;20.13;53.12;101079.09;5122263;29;20353;-75
2023/06/18 05:42:42;;;;;;;;;;;;;;;20.28;52.33;101080.97;5122779;29;19971;-75
2023/06/18 05:45:13;;;;;;;;;;;;;;;20.47;51.71;101082.75;5121744;29;20332;-76
2023/06/18 05:47:45;;;;;;;;;;;;;;;20.66;51.42;101080.91;5122264;29;19926;-75
2023/06/18 05:50:16;;;;;;;;;;;;;;;20.85;50.29;101085.25;5122402;29;19997;-75
2023/06/18 05:52:47;;;;;;;;;;;;;;;21.02;49.15;101085.25;5122553;29;19973;-75
2023/06/18 05:55:18;;;;;;;;;;;;;;;21.16;49.16;101087.19;5122411;29;20382;-75
2023/06/18 05:57:50;;;;;;;;;;;;;;;21.34;48.77;101089.81;5122930;29;19928;-76
2023/06/18 06:00:21;;;;;;;;;;;;;;;21.48;47.70;101082.88;5122260;29;20290;-76
2023/06/18 06:02:53;;;;;;;;;;;;;;;21.64;46.65;101076.75;5122192;29;19928;-75
2023/06/18 06:05:24;;;;;;;;;;;;;;;21.78;45.86;101075.97;5122395;29;19946;-76
2023/06/18 06:07:56;;;;;;;;;;;;;;;21.95;44.73;101077.69;5122062;29;19922;-76
2023/06/18 06:10:27;;;;;;;;;;;;;;;22.17;44.65;101086.16;5122475;29;19919;-75
2023/06/18 06:12:59;;;;;;;;;;;;;;;22.38;43.54;101075.28;5121531;29;20046;-76
2023/06/18 06:15:30;;;;;;;;;;;;;;;22.58;40.95;101082.94;5122098;29;19982;-75
2023/06/18 06:18:02;;;;;;;;;;;;;;;22.77;41.59;101085.38;5121846;29;20037;-76
2023/06/18 06:20:33;;;;;;;;;;;;;;;22.93;40.33;101090.63;5122697;29;20066;-76
2023/06/18 06:23:04;;;;;;;;;;;;;;;23.01;39.21;101089.31;5121911;29;19958;-76
2023/06/18 06:25:35;;;;;;;;;;;;;;;23.03;41.26;101093.59;5122056;29;19935;-75
2023/06/18 06:28:07;;;;;;;;;;;;;;;23.05;41.65;101088.16;5122309;29;19915;-76
2023/06/18 06:30:38;;;;;;;;;;;;;;;22.99;41.84;101094.72;5121573;29;19930;-75
2023/06/18 06:33:09;;;;;;;;;;;;;;;22.86;41.84;101099.94;5121463;29;19926;-75
2023/06/18 06:35:40;;;;;;;;;;;;;;;22.70;40.75;101129.22;5122498;29;19955;-76
2023/06/18 06:38:12;;;;;;;;;;;;;;;22.52;40.20;101148.84;5121897;29;19919;-76
2023/06/18 06:40:43;;;;;;;;;;;;;;;22.34;39.73;101150.75;5121724;29;19919;-76
2023/06/18 06:43:15;;;;;;;;;;;;;;;22.30;40.22;101143.91;5122213;29;20328;-75
2023/06/18 06:45:46;;;;;;;;;;;;;;;22.25;40.63;101145.94;5121419;29;19926;-75
2023/06/18 06:48:17;;;;;;;;;;;;;;;22.24;40.25;101147.75;5121412;29;19919;-75
2023/06/18 06:50:48;;;;;;;;;;;;;;;22.25;40.15;101154.78;5122078;29;19929;-75
2023/06/18 06:53:20;;;;;;;;;;;;;;;22.34;40.25;101153.41;5121399;29;19986;-76
2023/06/18 06:55:51;;;;;;;;;;;;;;;22.33;40.25;101147.25;5121674;29;19919;-76
2023/06/18 06:58:22;;;;;;;;;;;;;;;22.45;40.58;101147.50;5121287;29;19926;-75
2023/06/18 07:00:53;;;;;;;;;;;;;;;22.69;40.80;101147.91;5121084;29;19919;-75
2023/06/18 07:03:25;;;;;;;;;;;;;;;22.90;39.42;101149.28;5120996;29;19919;-74
2023/06/18 07:05:56;;;;;;;;;;;;;;;22.93;39.39;101151.75;5121321;29;20315;-74
2023/06/18 07:08:27;;;;;;;;;;;;;;;23.00;39.93;101148.75;5120742;29;20009;-75
2023/06/18 07:10:58;;;;;;;;;;;;;;;23.08;38.98;101149.19;5120041;29;20335;-76
2023/06/18 07:13:30;;;;;;;;;;;;;;;22.98;39.49;101150.66;5121423;29;19926;-75
2023/06/18 07:16:01;;;;;;;;;;;;;;;22.94;39.44;101149.94;5120937;29;19915;-76
2023/06/18 07:18:33;;;;;;;;;;;;;;;22.87;40.58;101146.81;5120621;29;19953;-75
2023/06/18 07:21:04;;;;;;;;;;;;;;;23.07;40.70;101153.66;5104198;29;19919;-75
2023/06/18 07:23:35;;;;;;;;;;;;;;;23.17;40.51;101155.72;5121296;29;20286;-75
2023/06/18 07:26:06;;;;;;;;;;;;;;;23.22;40.55;101151.88;5125615;29;19915;-75
2023/06/18 07:28:38;;;;;;;;;;;;;;;23.31;40.16;101153.09;5125355;29;19926;-75
2023/06/18 07:31:09;;;;;;;;;;;;;;;23.40;40.43;101149.88;5124829;29;19927;-75
2023/06/18 07:33:40;;;;;;;;;;;;;;;23.38;40.52;101141.16;5124735;29;19919;-75
2023/06/18 07:36:11;;;;;;;;;;;;;;;23.46;40.90;101149.53;5125322;29;19919;-75
2023/06/18 07:38:43;;;;;;;;;;;;;;;23.62;40.96;101137.94;5124711;29;19923;-75
2023/06/18 07:41:14;;;;;;;;;;;;;;;23.81;40.76;101140.28;5124672;29;19919;-75
2023/06/18 07:43:45;;;;;;;;;;;;;;;23.99;40.38;101140.97;5123671;29;19919;-75
2023/06/18 07:46:17;;;;;;;;;;;;;;;24.07;40.13;101141.34;5124188;29;19925;-76
2023/06/18 07:48:48;;;;;;;;;;;;;;;24.03;40.06;101139.81;5124012;29;20022;-75
2023/06/18 07:51:19;;;;;;;;;;;;;;;24.12;40.10;101146.38;5124402;29;20363;-75
2023/06/18 07:53:51;;;;;;;;;;;;;;;24.09;40.70;101144.75;5124873;29;20018;-75
2023/06/18 07:56:24;;;;;;;;;;;;;;;24.14;40.33;101142.66;5123471;29;19915;-74
2023/06/18 07:58:55;;;;;;;;;;;;;;;24.44;40.84;101143.41;5124449;29;19919;-75
2023/06/18 08:01:27;;;;;;;;;;;;;;;24.51;39.74;101139.41;5124371;29;19922;-76
2023/06/18 08:03:58;;;;;;;;;;;;;;;24.38;40.14;101139.34;5124466;29;19922;-75
2023/06/18 08:06:30;;;;;;;;;;;;;;;24.45;40.38;101140.66;5124576;29;19919;-75
2023/06/18 08:09:01;;;;;;;;;;;;;;;24.62;40.35;101136.03;5123993;29;19916;-75
2023/06/18 08:11:32;;;;;;;;;;;;;;;24.59;40.30;101142.44;5124727;29;19926;-75
2023/06/18 08:14:04;;;;;;;;;;;;;;;24.84;40.21;101143.47;5124773;29;19915;-75
2023/06/18 08:16:35;;;;;;;;;;;;;;;25.29;39.58;101142.19;5123034;29;19994;-75
2023/06/18 08:19:06;;;;;;;;;;;;;;;25.53;39.59;101138.72;5123568;29;19927;-75
2023/06/18 08:21:38;;;;;;;;;;;;;;;25.44;38.87;101136.72;5123704;29;20236;-74
2023/06/18 08:24:09;;;;;;;;;;;;;;;25.55;39.59;101130.63;5123992;29;20371;-75
2023/06/18 08:26:40;;;;;;;;;;;;;;;25.79;39.40;101134.22;5123952;29;19965;-75
2023/06/18 08:29:11;;;;;;;;;;;;;;;25.89;39.36;101133.56;5123906;29;20363;-75
2023/06/18 08:31:43;;;;;;;;;;;;;;;25.59;39.13;101130.31;5123986;29;19934;-75
2023/06/18 08:34:14;;;;;;;;;;;;;;;25.30;39.66;101132.34;5123294;29;19923;-75
2023/06/18 08:36:47;;;;;;;;;;;;;;;25.12;39.90;101123.78;5124158;29;20005;-75
2023/06/18 08:39:18;;;;;;;;;;;;;;;25.02;40.35;101128.03;5123639;29;19919;-75
2023/06/18 08:41:49;;;;;;;;;;;;;;;24.94;40.66;101123.22;5123544;29;19930;-75
2023/06/18 08:44:23;;;;;;;;;;;;;;;24.99;41.17;101120.22;5123831;29;19919;-75
2023/06/18 08:47:01;;;;;;;;;;;;;;;24.97;41.07;101128.34;5124407;29;19915;-75
2023/06/18 08:49:33;;;;;;;;;;;;;;;24.82;41.98;101121.38;5123638;29;19915;-75
2023/06/18 08:52:08;;;;;;;;;;;;;;;24.80;41.21;101121.50;5123700;29;19918;-75
2023/06/18 08:54:39;;;;;;;;;;;;;;;24.89;41.59;101123.53;5122922;29;19922;-75
2023/06/18 08:57:17;;;;;;;;;;;;;;;24.96;41.88;101121.31;5124111;29;19970;-74
2023/06/18 08:59:49;;;;;;;;;;;;;;;24.98;41.44;101127.38;5124436;29;19915;-75
2023/06/18 09:02:21;;;;;;;;;;;;;;;24.95;41.23;101122.25;5124172;29;19919;-75
2023/06/18 09:04:53;;;;;;;;;;;;;;;24.94;41.35;101129.41;5122074;29;19919;-75
2023/06/18 09:07:25;;;;;;;;;;;;;;;24.97;41.16;101130.16;5123236;29;20347;-75
2023/06/18 09:09:56;;;;;;;;;;;;;;;24.99;41.42;101125.56;5123234;29;19919;-75
2023/06/18 09:12:27;;;;;;;;;;;;;;;25.06;41.54;101132.19;5123214;29;19915;-75
2023/06/18 09:14:58;;;;;;;;;;;;;;;25.19;41.35;101126.88;5123072;29;19926;-75
2023/06/18 09:17:30;;;;;;;;;;;;;;;25.32;41.17;101135.75;5123099;29;19930;-75
2023/06/18 09:20:02;;;;;;;;;;;;;;;25.43;42.22;101127.84;5123203;29;19923;-75
2023/06/18 09:22:43;;;;;;;;;;;;;;;25.59;41.86;101130.31;5122899;29;19953;-75
2023/06/18 09:25:18;;;;;;;;;;;;;;;25.73;41.29;101129.31;5123238;29;19982;-75
2023/06/18 09:27:49;;;;;;;;;;;;;;;25.80;40.81;101135.06;5122567;29;19915;-75
2023/06/18 09:30:23;;;;;;;;;;;;;;;25.79;40.56;101136.03;5123575;29;19925;-75
2023/06/18 09:32:59;;;;;;;;;;;;;;;25.78;40.94;101132.53;5123092;29;20013;-75
2023/06/18 09:35:30;;;;;;;;;;;;;;;25.74;41.23;101135.50;5123086;29;20278;-75
2023/06/18 09:38:07;;;;;;;;;;;;;;;25.63;40.87;101133.59;5122926;29;19915;-75
2023/06/18 09:40:40;;;;;;;;;;;;;;;25.54;41.35;101135.13;5123183;29;19954;-75
2023/06/18 09:43:11;;;;;;;;;;;;;;;25.50;41.67;101133.59;5122764;29;19915;-75
2023/06/18 09:45:43;;;;;;;;;;;;;;;25.48;41.31;101131.03;5121168;29;20228;-74
2023/06/18 09:48:14;;;;;;;;;;;;;;;25.38;41.75;101135.34;5121669;29;19919;-74
2023/06/18 09:50:46;;;;;;;;;;;;;;;25.31;42.64;101134.06;5122336;29;19970;-75
2023/06/18 09:53:18;;;;;;;;;;;;;;;25.22;42.48;101140.00;5122715;29;20383;-75
2023/06/18 09:55:49;;;;;;;;;;;;;;;25.14;43.57;101137.84;5122877;29;19918;-75
2023/06/18 09:58:37;;;;;;;;;;;;;;;25.10;45.72;101133.69;5122292;29;19922;-75
2023/06/18 10:01:09;;;;;;;;;;;;;;;25.15;44.93;101123.56;5121847;29;19943;-75
2023/06/18 10:03:41;;;;;;;;;;;;;;;25.18;45.75;101127.81;5122891;29;19919;-75
2023/06/18 10:06:29;;;;;;;;;;;;;;;25.25;44.48;101123.78;5121594;29;19973;-75
2023/06/18 10:09:06;;;;;;;;;;;;;;;25.19;44.49;101122.38;5122294;29;19926;-75
2023/06/18 10:11:37;;;;;;;;;;;;;;;25.20;44.59;101120.59;5122101;29;20005;-75
2023/06/18 10:14:12;;;;;;;;;;;;;;;25.16;46.75;101109.25;5121983;29;20022;-74
2023/06/18 10:16:48;;;;;;;;;;;;;;;25.16;48.21;101106.59;5121702;29;19919;-75
2023/06/18 10:19:27;;;;;;;;;;;;;;;25.16;46.31;101106.59;5121752;29;19923;-74
2023/06/18 10:22:00;;;;;;;;;;;;;;;25.23;47.03;101107.00;5121676;29;19974;-75
2023/06/18 10:24:51;;;;;;;;;;;;;;;25.36;46.95;101097.25;5121437;29;20006;-75
2023/06/18 10:27:23;;;;;;;;;;;;;;;25.52;47.34;101086.34;5121836;29;19957;-76
2023/06/18 10:29:57;;;;;;;;;;;;;;;25.64;51.20;101085.44;5121404;29;19946;-75
2023/06/18 10:32:30;;;;;;;;;;;;;;;25.71;47.29;101077.00;5120354;29;19970;-75
2023/06/18 10:35:05;;;;;;;;;;;;;;;25.93;47.89;101081.63;5121740;29;20286;-75
2023/06/18 10:37:38;;;;;;;;;;;;;;;26.06;48.26;101084.28;5121574;29;19998;-75
2023/06/18 10:40:10;;;;;;;;;;;;;;;26.19;45.67;101080.63;5121536;29;19922;-75
2023/06/18 10:42:41;;;;;;;;;;;;;;;26.46;46.85;101084.00;5121142;29;19962;-75
2023/06/18 10:45:14;;;;;;;;;;;;;;;26.72;46.28;101087.41;5122051;29;19923;-77
2023/06/18 10:47:45;;;;;;;;;;;;;;;26.96;45.68;101081.97;5121414;29;19915;-76
2023/06/18 10:50:25;;;;;;;;;;;;;;;27.14;45.09;101081.53;5121447;29;19925;-76
2023/06/18 10:53:16;;;;;;;;;;;;;;;27.46;43.99;101076.31;5121587;29;20333;-76
2023/06/18 10:55:56;;;;;;;;;;;;;;;27.92;42.41;101082.47;5119822;29;19915;-76
2023/06/18 10:58:32;;;;;;;;;;;;;;;28.33;42.06;101084.44;5121101;29;19971;-76
2023/06/18 11:01:04;;;;;;;;;;;;;;;28.44;41.64;101071.97;5119896;29;19923;-76
2023/06/18 11:03:37;;;;;;;;;;;;;;;28.36;41.47;101078.81;5121392;29;19919;-76
2023/06/18 11:06:08;;;;;;;;;;;;;;;28.11;42.01;101066.63;5121539;29;19931;-77
2023/06/18 11:08:40;;;;;;;;;;;;;;;27.99;42.32;101059.59;5121616;29;19947;-75
2023/06/18 11:11:13;;;;;;;;;;;;;;;27.84;43.75;101061.69;5121446;29;19915;-76
2023/06/18 11:13:53;;;;;;;;;;;;;;;27.76;42.85;101058.78;5122408;29;19915;-76
2023/06/18 11:16:24;;;;;;;;;;;;;;;27.74;43.83;101056.22;5122834;29;19915;-76
2023/06/18 11:19:00;;;;;;;;;;;;;;;27.62;43.28;101052.69;5122734;29;19919;-76
2023/06/18 11:21:31;;;;;;;;;;;;;;;27.59;43.70;101052.94;5121268;29;20419;-75
2023/06/18 11:24:04;;;;;;;;;;;;;;;27.61;43.68;101045.66;5122176;29;19919;-75
2023/06/18 11:26:35;;;;;;;;;;;;;;;27.57;43.36;101049.53;5122026;29;20010;-76
2023/06/18 11:29:07;;;;;;;;;;;;;;;27.43;44.30;101039.09;5121671;29;20074;-75
2023/06/18 11:31:38;;;;;;;;;;;;;;;27.31;44.44;101045.41;5121445;29;20004;-75
2023/06/18 11:34:11;;;;;;;;;;;;;;;27.15;45.66;101046.63;5121620;29;19927;-75
2023/06/18 11:36:42;;;;;;;;;;;;;;;26.98;46.64;101037.22;5121480;29;20287;-75
2023/06/18 11:39:14;;;;;;;;;;;;;;;26.97;46.70;101032.88;5121134;29;19926;-76
2023/06/18 11:41:45;;;;;;;;;;;;;;;26.96;47.67;101025.81;5120064;29;19962;-76
2023/06/18 11:44:23;;;;;;;;;;;;;;;26.98;48.22;101020.34;5120742;29;19915;-76
2023/06/18 11:46:58;;;;;;;;;;;;;;;27.02;47.07;101024.47;5121778;29;19923;-76
2023/06/18 11:49:30;;;;;;;;;;;;;;;27.27;46.93;101021.56;5120035;29;19919;-76
2023/06/18 11:52:01;;;;;;;;;;;;;;;27.57;45.77;101017.41;5120744;29;19919;-77
2023/06/18 11:54:37;;;;;;;;;;;;;;;27.84;45.12;101013.47;5121513;29;19915;-76
2023/06/18 11:57:12;;;;;;;;;;;;;;;28.25;44.44;101016.38;5120826;29;19915;-77
2023/06/18 11:59:44;;;;;;;;;;;;;;;28.50;42.63;101005.28;5121023;29;19927;-76
2023/06/18 12:02:18;;;;;;;;;;;;;;;28.75;42.73;101005.88;5120657;29;19919;-76
2023/06/18 12:04:50;;;;;;;;;;;;;;;29.14;42.31;101002.53;5119640;29;19965;-76
2023/06/18 12:07:22;;;;;;;;;;;;;;;29.74;41.83;100999.91;5119388;29;19950;-76
2023/06/18 12:09:55;;;;;;;;;;;;;;;30.14;41.14;100999.81;5121157;29;19922;-76
2023/06/18 12:12:38;;;;;;;;;;;;;;;30.32;38.46;100991.84;5124312;29;19915;-76
2023/06/18 12:15:21;;;;;;;;;;;;;;;30.42;38.77;100991.88;5124479;29;19921;-77
2023/06/18 12:17:55;;;;;;;;;;;;;;;30.64;39.39;100993.38;5123492;29;19935;-76
2023/06/18 12:20:28;;;;;;;;;;;;;;;30.77;38.77;100993.06;5124681;29;20248;-76
2023/06/18 12:23:00;;;;;;;;;;;;;;;31.18;38.65;100993.63;5124237;29;19946;-76
2023/06/18 12:25:31;;;;;;;;;;;;;;;31.93;36.45;100993.47;5124323;29;19919;-75
2023/06/18 12:28:03;;;;;;;;;;;;;;;32.49;35.56;100991.41;5124384;29;19915;-76
2023/06/18 12:30:35;;;;;;;;;;;;;;;32.83;36.21;100985.22;5125063;29;20236;-76
2023/06/18 12:33:07;;;;;;;;;;;;;;;33.09;33.98;100984.34;5124663;29;19915;-76
2023/06/18 12:35:44;;;;;;;;;;;;;;;33.23;34.54;100986.47;5127367;29;19915;-75
2023/06/18 12:38:15;;;;;;;;;;;;;;;33.16;34.95;100984.53;5128157;29;19922;-76
2023/06/18 12:40:48;;;;;;;;;;;;;;;32.60;34.98;100990.28;5125573;29;19915;-75
2023/06/18 12:43:19;;;;;;;;;;;;;;;32.09;34.93;100984.69;5123814;29;19915;-72
2023/06/18 12:45:51;;;;;;;;;;;;;;;31.70;35.43;100978.75;5122195;29;19915;-72
2023/06/18 12:48:25;;;;;;;;;;;;;;;31.06;36.14;100971.44;5123611;29;19915;-72
2023/06/18 12:50:58;;;;;;;;;;;;;;;30.76;36.80;100975.22;5123679;29;19919;-71
2023/06/18 12:53:31;;;;;;;;;;;;;;;30.53;36.58;100970.19;5123774;29;20378;-72
2023/06/18 12:56:16;;;;;;;;;;;;;;;30.42;37.50;100975.72;5123516;29;19918;-72
2023/06/18 12:58:48;;;;;;;;;;;;;;;30.47;36.10;100973.44;5123438;29;19915;-70
2023/06/18 13:01:20;;;;;;;;;;;;;;;30.33;36.70;100972.06;5122833;29;19925;-72
2023/06/18 13:03:53;;;;;;;;;;;;;;;30.18;36.91;100978.84;5123411;29;19926;-72